createdAt,value
2023-05-14T00:01:54.843Z,3.00
2023-05-14T00:04:27.015Z,2.70
2023-05-14T00:07:43.567Z,2.30
2023-05-14T00:10:16.139Z,2.40
2023-05-14T00:13:39.621Z,2.60
2023-05-14T00:17:09.353Z,2.80
2023-05-14T00:20:44.264Z,2.80
2023-05-14T00:23:34.667Z,2.70
2023-05-14T00:26:22.919Z,2.80
2023-05-14T00:29:12.946Z,2.80
2023-05-14T00:31:55.488Z,2.90
2023-05-14T00:35:30.636Z,2.60
2023-05-14T00:39:11.391Z,3.30
2023-05-14T00:42:53.528Z,4.90
2023-05-14T00:46:21.889Z,2.90
2023-05-14T00:49:41.853Z,2.50
2023-05-14T00:53:14.795Z,2.80
2023-05-14T00:56:24.510Z,2.40
2023-05-14T00:59:49.733Z,2.50
2023-05-14T01:03:20.398Z,2.80
2023-05-14T01:07:17.499Z,3.10
2023-05-14T01:11:15.930Z,2.90
2023-05-14T01:14:46.046Z,2.70
2023-05-14T01:18:02.133Z,2.60
2023-05-14T01:21:41.344Z,2.70
2023-05-14T01:24:59.321Z,3.30
2023-05-14T01:28:24.372Z,2.90
2023-05-14T01:32:03.003Z,2.80
2023-05-14T01:35:51.706Z,3.00
2023-05-14T01:39:35.209Z,3.00
2023-05-14T01:43:01.378Z,2.70
2023-05-14T01:46:08.004Z,2.50
2023-05-14T01:49:25.758Z,2.60
2023-05-14T01:52:21.961Z,2.80
2023-05-14T01:55:49.881Z,2.80
2023-05-14T01:58:30.396Z,2.40
2023-05-14T02:01:41.772Z,2.60
2023-05-14T02:04:27.868Z,3.10
2023-05-14T02:06:57.550Z,3.00
2023-05-14T02:09:36.396Z,2.50
2023-05-14T02:12:14.995Z,3.00
2023-05-14T02:14:50.367Z,2.90
2023-05-14T02:17:20.661Z,3.20
2023-05-14T02:19:50.399Z,3.40
2023-05-14T02:22:50.075Z,3.30
2023-05-14T02:25:39.830Z,3.30
2023-05-14T02:28:52.309Z,3.80
2023-05-14T02:31:46.773Z,3.30
2023-05-14T02:35:02.373Z,3.50
2023-05-14T02:38:13.080Z,3.90
2023-05-14T02:41:06.913Z,4.30
2023-05-14T02:44:07.479Z,3.40
2023-05-14T02:47:03.769Z,3.60
2023-05-14T02:49:48.118Z,4.60
2023-05-14T02:52:51.912Z,5.20
2023-05-14T02:56:18.882Z,5.50
2023-05-14T02:59:13.884Z,4.20
2023-05-14T03:02:36.745Z,3.50
2023-05-14T03:05:52.862Z,3.90
2023-05-14T03:09:13.673Z,4.70
2023-05-14T03:12:25.902Z,4.10
2023-05-14T03:16:12.429Z,4.40
2023-05-14T03:19:00.366Z,4.60
2023-05-14T03:22:02.795Z,4.40
2023-05-14T03:25:18.349Z,4.50
2023-05-14T03:28:27.423Z,4.60
2023-05-14T03:31:41.901Z,4.50
2023-05-14T03:34:50.200Z,4.50
2023-05-14T03:38:00.583Z,5.40
2023-05-14T03:40:39.905Z,5.00
2023-05-14T03:43:53.333Z,5.00
2023-05-14T03:46:24.378Z,5.30
2023-05-14T03:49:22.461Z,5.70
2023-05-14T03:52:40.771Z,5.60
2023-05-14T03:55:31.649Z,6.20
2023-05-14T03:58:01.239Z,7.70
2023-05-14T04:00:52.869Z,6.50
2023-05-14T04:03:28.425Z,6.40
2023-05-14T04:06:02.986Z,6.90
2023-05-14T04:09:16.243Z,7.10
2023-05-14T04:12:05.833Z,7.00
2023-05-14T04:15:06.326Z,6.70
2023-05-14T04:18:13.469Z,6.90
2023-05-14T04:20:48.968Z,6.90
2023-05-14T04:23:36.059Z,6.70
2023-05-14T04:26:12.134Z,6.00
2023-05-14T04:29:06.399Z,5.10
2023-05-14T04:31:44.651Z,5.30
2023-05-14T04:34:16.727Z,6.00
2023-05-14T04:36:46.469Z,6.70
2023-05-14T04:39:16.018Z,6.80
2023-05-14T04:41:50.399Z,6.90
2023-05-14T04:44:28.074Z,7.10
2023-05-14T04:47:03.377Z,5.20
2023-05-14T04:49:38.200Z,5.50
2023-05-14T04:52:13.981Z,4.80
2023-05-14T04:55:16.551Z,5.10
2023-05-14T04:57:52.378Z,5.70
2023-05-14T05:00:33.708Z,5.80
2023-05-14T05:03:09.169Z,5.90
2023-05-14T05:06:03.862Z,6.30
2023-05-14T05:08:41.946Z,5.30
2023-05-14T05:11:14.398Z,5.40
2023-05-14T05:13:44.386Z,5.10
2023-05-14T05:16:15.782Z,5.20
2023-05-14T05:18:55.262Z,4.50
2023-05-14T05:22:03.044Z,4.90
2023-05-14T05:24:32.138Z,5.40
2023-05-14T05:27:01.111Z,5.60
2023-05-14T05:29:58.687Z,5.40
2023-05-14T05:32:28.055Z,5.00
2023-05-14T05:34:57.545Z,4.80
2023-05-14T05:37:26.978Z,5.50
2023-05-14T05:39:56.179Z,4.40
2023-05-14T05:42:25.625Z,5.70
2023-05-14T05:44:54.698Z,5.30
2023-05-14T05:47:26.314Z,5.50
2023-05-14T05:49:57.818Z,4.90
2023-05-14T05:52:26.819Z,5.20
2023-05-14T05:54:58.773Z,5.20
2023-05-14T05:57:28.270Z,4.70
2023-05-14T05:59:57.166Z,4.60
2023-05-14T06:02:26.454Z,4.60
2023-05-14T06:04:55.691Z,4.40
2023-05-14T06:07:24.617Z,5.40
2023-05-14T06:09:53.567Z,5.50
2023-05-14T06:12:22.804Z,5.00
2023-05-14T06:14:52.403Z,4.90
2023-05-14T06:17:22.417Z,4.90
2023-05-14T06:19:54.737Z,5.10
2023-05-14T06:22:24.140Z,5.00
2023-05-14T06:24:53.339Z,4.60
2023-05-14T06:27:22.254Z,4.90
2023-05-14T06:29:51.355Z,4.90
2023-05-14T06:32:20.558Z,5.30
2023-05-14T06:34:49.979Z,5.70
2023-05-14T06:37:22.018Z,5.10
2023-05-14T06:39:54.689Z,4.90
2023-05-14T06:42:24.803Z,4.60
2023-05-14T06:44:53.758Z,5.40
2023-05-14T06:47:22.802Z,5.30
2023-05-14T06:49:51.698Z,5.00
2023-05-14T06:52:20.944Z,5.10
2023-05-14T06:54:49.893Z,4.70
2023-05-14T06:57:18.874Z,5.60
2023-05-14T06:59:47.881Z,5.50
2023-05-14T07:02:17.219Z,5.80
2023-05-14T07:04:48.649Z,5.00
2023-05-14T07:07:21.468Z,4.60
2023-05-14T07:09:50.624Z,5.10
2023-05-14T07:12:20.131Z,5.00
2023-05-14T07:14:49.272Z,4.90
2023-05-14T07:17:18.641Z,5.10
2023-05-14T07:19:48.343Z,5.00
2023-05-14T07:22:18.195Z,5.30
2023-05-14T07:24:47.605Z,5.10
2023-05-14T07:27:17.881Z,5.10
2023-05-14T07:29:47.256Z,5.40
2023-05-14T07:32:16.303Z,5.30
2023-05-14T07:34:52.516Z,5.00
2023-05-14T07:37:27.161Z,4.90
2023-05-14T07:40:21.704Z,5.20
2023-05-14T07:42:50.817Z,4.80
2023-05-14T07:45:20.411Z,4.90
2023-05-14T07:47:54.965Z,5.10
2023-05-14T07:50:25.146Z,5.10
2023-05-14T07:52:56.992Z,5.60
2023-05-14T07:55:27.160Z,5.30
2023-05-14T07:57:56.637Z,5.30
2023-05-14T08:00:25.956Z,4.80
2023-05-14T08:02:56.471Z,5.10
2023-05-14T08:05:28.518Z,5.10
2023-05-14T08:08:00.346Z,5.20
2023-05-14T08:10:29.667Z,5.20
2023-05-14T08:12:58.940Z,4.90
2023-05-14T08:15:28.109Z,5.70
2023-05-14T08:17:57.406Z,5.40
2023-05-14T08:20:26.755Z,5.40
2023-05-14T08:22:59.193Z,5.50
2023-05-14T08:25:37.420Z,5.30
2023-05-14T08:28:07.081Z,4.90
2023-05-14T08:30:36.045Z,5.20
2023-05-14T08:33:05.800Z,5.70
2023-05-14T08:35:37.811Z,4.70
2023-05-14T08:38:07.000Z,5.60
2023-05-14T08:40:36.860Z,5.70
2023-05-14T08:43:07.840Z,5.20
2023-05-14T08:45:38.543Z,4.90
2023-05-14T08:48:20.101Z,5.00
2023-05-14T08:50:49.259Z,5.30
2023-05-14T08:53:22.422Z,4.50
2023-05-14T08:55:56.123Z,4.80
2023-05-14T08:58:30.775Z,5.00
2023-05-14T09:01:02.941Z,4.70
2023-05-14T09:03:41.317Z,5.00
2023-05-14T09:06:12.049Z,5.70
2023-05-14T09:08:41.510Z,5.20
2023-05-14T09:11:10.572Z,5.00
2023-05-14T09:13:45.782Z,5.40
2023-05-14T09:16:16.064Z,5.30
2023-05-14T09:18:49.003Z,4.70
2023-05-14T09:21:21.464Z,5.00
2023-05-14T09:24:00.574Z,4.60
2023-05-14T09:26:34.456Z,4.90
2023-05-14T09:29:06.384Z,5.10
2023-05-14T09:31:46.130Z,5.30
2023-05-14T09:34:39.007Z,4.90
2023-05-14T09:37:15.043Z,4.60
2023-05-14T09:39:55.979Z,4.80
2023-05-14T09:42:42.561Z,5.50
2023-05-14T09:45:22.674Z,5.00
2023-05-14T09:50:30.829Z,5.30
2023-05-14T09:53:12.833Z,4.40
2023-05-14T09:55:48.476Z,5.00
2023-05-14T09:58:20.480Z,4.80
2023-05-14T10:00:50.407Z,4.30
2023-05-14T10:03:23.461Z,4.90
2023-05-14T10:06:09.717Z,5.00
2023-05-14T10:08:54.317Z,5.00
2023-05-14T10:11:48.062Z,4.70
2023-05-14T10:14:36.889Z,4.50
2023-05-14T10:17:22.191Z,4.80
2023-05-14T10:20:06.817Z,4.40
2023-05-14T10:22:56.013Z,4.50
2023-05-14T10:25:34.196Z,4.90
2023-05-14T10:28:43.264Z,4.90
2023-05-14T10:31:37.756Z,4.50
2023-05-14T10:34:49.375Z,5.30
2023-05-14T10:37:31.432Z,5.00
2023-05-14T10:40:20.079Z,4.80
2023-05-14T10:42:49.791Z,4.50
2023-05-14T10:45:26.859Z,4.40
2023-05-14T10:48:01.681Z,4.40
2023-05-14T10:50:50.524Z,5.10
2023-05-14T10:53:46.373Z,4.70
2023-05-14T10:56:20.371Z,4.10
2023-05-14T10:59:20.258Z,4.20
2023-05-14T11:02:22.775Z,4.20
2023-05-14T11:05:16.439Z,4.90
2023-05-14T11:08:01.323Z,4.70
2023-05-14T11:11:03.231Z,4.50
2023-05-14T11:13:36.376Z,4.40
2023-05-14T11:16:22.633Z,4.50
2023-05-14T11:19:19.293Z,5.00
2023-05-14T11:22:07.831Z,4.60
2023-05-14T11:25:03.136Z,4.70
2023-05-14T11:27:35.644Z,4.70
2023-05-14T11:30:27.914Z,4.60
2023-05-14T11:33:15.773Z,4.50
2023-05-14T11:36:24.425Z,4.60
2023-05-14T11:39:28.064Z,4.70
2023-05-14T11:42:24.856Z,4.70
2023-05-14T11:45:17.923Z,4.60
2023-05-14T11:47:56.992Z,4.70
2023-05-14T11:50:41.554Z,4.60
2023-05-14T11:53:52.436Z,4.90
2023-05-14T11:56:40.127Z,4.40
2023-05-14T11:59:51.621Z,4.80
2023-05-14T12:03:01.797Z,5.10
2023-05-14T12:05:34.135Z,4.70
2023-05-14T12:08:23.454Z,4.50
2023-05-14T12:10:56.129Z,4.60
2023-05-14T12:13:34.096Z,4.10
2023-05-14T12:16:06.587Z,4.80
2023-05-14T12:18:39.572Z,4.90
2023-05-14T12:21:18.564Z,4.70
2023-05-14T12:24:13.668Z,5.10
2023-05-14T12:27:07.176Z,4.70
2023-05-14T12:29:47.301Z,4.30
2023-05-14T12:32:22.529Z,4.60
2023-05-14T12:35:07.118Z,4.10
2023-05-14T12:38:00.201Z,4.40
2023-05-14T12:40:54.007Z,4.20
2023-05-14T12:43:55.373Z,4.30
2023-05-14T12:46:47.717Z,4.00
2023-05-14T12:49:28.778Z,3.80
2023-05-14T12:52:19.831Z,4.30
2023-05-14T12:55:16.241Z,4.20
2023-05-14T12:58:13.276Z,3.90
2023-05-14T13:01:41.633Z,3.80
2023-05-14T13:04:23.794Z,3.80
2023-05-14T13:07:08.756Z,4.10
2023-05-14T13:10:03.024Z,3.80
2023-05-14T13:12:53.681Z,4.80
2023-05-14T13:15:37.972Z,4.80
2023-05-14T13:18:24.759Z,4.10
2023-05-14T13:21:26.969Z,4.10
2023-05-14T13:24:12.050Z,3.90
2023-05-14T13:27:19.521Z,4.70
2023-05-14T13:30:13.502Z,4.70
2023-05-14T13:32:50.017Z,4.60
2023-05-14T13:35:56.343Z,4.50
2023-05-14T13:38:54.505Z,4.30
2023-05-14T13:41:31.025Z,4.50
2023-05-14T13:44:19.523Z,4.60
2023-05-14T13:47:07.056Z,4.40
2023-05-14T13:50:07.975Z,4.70
2023-05-14T13:52:46.628Z,4.50
2023-05-14T13:55:42.072Z,4.60
2023-05-14T13:58:28.402Z,4.50
2023-05-14T14:01:31.770Z,5.20
2023-05-14T14:04:31.132Z,4.30
2023-05-14T14:07:08.660Z,4.40
2023-05-14T14:10:08.621Z,4.60
2023-05-14T14:12:56.375Z,4.60
2023-05-14T14:15:31.932Z,4.70
2023-05-14T14:18:35.527Z,4.40
2023-05-14T14:21:18.733Z,4.60
2023-05-14T14:24:34.945Z,4.80
2023-05-14T14:27:33.754Z,4.70
2023-05-14T14:30:16.467Z,4.50
2023-05-14T14:32:50.327Z,4.30
2023-05-14T14:35:40.334Z,4.50
2023-05-14T14:38:44.556Z,4.30
2023-05-14T14:41:38.033Z,5.30
2023-05-14T14:44:14.473Z,4.70
2023-05-14T14:46:52.649Z,4.90
2023-05-14T14:49:54.087Z,4.40
2023-05-14T14:52:26.715Z,5.20
2023-05-14T14:54:59.857Z,5.30
2023-05-14T14:57:41.694Z,4.40
2023-05-14T15:00:30.782Z,5.10
2023-05-14T15:03:16.049Z,4.40
2023-05-14T15:06:08.207Z,4.80
2023-05-14T15:08:37.368Z,4.70
2023-05-14T15:11:29.768Z,4.90
2023-05-14T15:14:01.777Z,5.10
2023-05-14T15:16:40.267Z,4.70
2023-05-14T15:19:13.922Z,4.90
2023-05-14T15:21:43.482Z,4.40
2023-05-14T15:24:33.228Z,4.90
2023-05-14T15:27:17.164Z,4.50
2023-05-14T15:29:49.546Z,4.40
2023-05-14T15:32:29.474Z,4.80
2023-05-14T15:35:02.420Z,4.90
2023-05-14T15:37:55.877Z,4.70
2023-05-14T15:40:25.617Z,4.80
2023-05-14T15:43:39.241Z,4.80
2023-05-14T15:46:39.010Z,4.90
2023-05-14T15:49:17.327Z,4.60
2023-05-14T15:51:46.376Z,4.30
2023-05-14T15:54:20.943Z,4.40
2023-05-14T15:57:00.195Z,4.20
2023-05-14T15:59:38.014Z,4.30
2023-05-14T16:02:30.311Z,4.30
2023-05-14T16:04:59.802Z,4.40
2023-05-14T16:07:32.195Z,4.80
2023-05-14T16:10:01.620Z,4.50
2023-05-14T16:12:31.120Z,5.00
2023-05-14T16:15:00.883Z,5.10
2023-05-14T16:17:32.894Z,5.00
2023-05-14T16:20:02.614Z,5.00
2023-05-14T16:22:35.818Z,5.10
2023-05-14T16:25:05.983Z,5.80
2023-05-14T16:27:42.775Z,4.90
2023-05-14T16:30:14.991Z,4.80
2023-05-14T16:33:59.371Z,5.10
2023-05-14T16:37:31.273Z,5.00
2023-05-14T16:41:03.706Z,4.90
2023-05-14T16:43:17.878Z,5.10
2023-05-14T16:45:47.061Z,5.10
2023-05-14T16:48:16.145Z,5.00
2023-05-14T16:50:45.295Z,4.80
2023-05-14T16:53:14.330Z,5.60
2023-05-14T16:55:43.218Z,5.20
2023-05-14T16:58:12.707Z,5.30
2023-05-14T17:00:41.751Z,5.40
2023-05-14T17:03:17.090Z,5.80
2023-05-14T17:05:46.529Z,5.70
2023-05-14T17:08:15.868Z,5.60
2023-05-14T17:10:44.818Z,5.20
2023-05-14T17:13:14.221Z,5.60
2023-05-14T17:15:43.490Z,5.10
2023-05-14T17:18:13.070Z,5.00
2023-05-14T17:20:45.248Z,4.60
2023-05-14T17:23:14.518Z,5.00
2023-05-14T17:25:43.386Z,5.20
2023-05-14T17:28:15.907Z,5.20
2023-05-14T17:30:44.979Z,5.30
2023-05-14T17:33:13.877Z,4.80
2023-05-14T17:35:44.823Z,4.40
2023-05-14T17:38:13.877Z,10.90
2023-05-14T17:40:42.993Z,8.60
2023-05-14T17:43:11.896Z,6.20
2023-05-14T17:45:53.169Z,5.80
2023-05-14T17:48:29.005Z,4.00
2023-05-14T17:51:05.322Z,5.00
2023-05-14T17:53:36.480Z,5.30
2023-05-14T17:56:06.212Z,5.30
2023-05-14T17:58:37.370Z,4.30
2023-05-14T18:01:09.681Z,4.90
2023-05-14T18:03:38.847Z,5.00
2023-05-14T18:06:08.025Z,5.10
2023-05-14T18:08:37.271Z,4.80
2023-05-14T18:11:09.663Z,5.40
2023-05-14T18:13:38.696Z,5.10
2023-05-14T18:16:08.077Z,4.40
2023-05-14T18:18:40.303Z,5.30
2023-05-14T18:21:09.445Z,4.80
2023-05-14T18:23:39.054Z,4.50
2023-05-14T18:26:08.674Z,3.80
2023-05-14T18:28:53.168Z,3.80
2023-05-14T18:31:22.346Z,3.90
2023-05-14T18:34:03.544Z,4.40
2023-05-14T18:36:38.946Z,3.90
2023-05-14T18:39:08.923Z,4.10
2023-05-14T18:41:37.942Z,3.50
2023-05-14T18:44:07.256Z,3.90
2023-05-14T18:46:36.696Z,3.60
2023-05-14T18:49:06.269Z,3.60
2023-05-14T18:51:35.419Z,3.60
2023-05-14T18:54:04.728Z,3.50
2023-05-14T18:56:37.532Z,3.60
2023-05-14T18:59:10.609Z,3.60
2023-05-14T19:01:48.720Z,3.70
2023-05-14T19:04:18.271Z,3.80
2023-05-14T19:06:47.245Z,2.90
2023-05-14T19:09:22.342Z,3.50
2023-05-14T19:11:54.902Z,3.80
2023-05-14T19:14:27.508Z,3.60
2023-05-14T19:17:09.168Z,3.80
2023-05-14T19:19:41.168Z,4.00
2023-05-14T19:22:10.967Z,3.90
2023-05-14T19:24:41.195Z,4.20
2023-05-14T19:27:11.287Z,4.10
2023-05-14T19:29:53.973Z,3.90
2023-05-14T19:32:23.236Z,3.70
2023-05-14T19:35:03.030Z,2.80
2023-05-14T19:37:45.772Z,4.70
2023-05-14T19:40:15.094Z,3.90
2023-05-14T19:42:44.527Z,3.90
2023-05-14T19:45:24.186Z,4.00
2023-05-14T19:47:54.382Z,4.20
2023-05-14T19:50:24.064Z,4.40
2023-05-14T19:53:24.926Z,3.90
2023-05-14T19:56:20.388Z,4.40
2023-05-14T19:58:49.556Z,3.50
2023-05-14T20:01:19.026Z,4.20
2023-05-14T20:03:57.254Z,4.30
2023-05-14T20:06:33.094Z,4.50
2023-05-14T20:09:03.085Z,4.30
2023-05-14T20:11:43.865Z,4.10
2023-05-14T20:14:13.320Z,5.10
2023-05-14T20:17:14.547Z,4.60
2023-05-14T20:20:47.822Z,4.40
2023-05-14T20:22:43.624Z,4.40
2023-05-14T20:25:16.883Z,4.00
2023-05-14T20:30:34.477Z,4.30
2023-05-14T20:33:25.421Z,4.00
2023-05-14T20:36:47.692Z,4.10
2023-05-14T20:39:22.691Z,4.30
2023-05-14T20:41:52.709Z,5.00
2023-05-14T20:47:29.996Z,4.00
2023-05-14T20:49:59.671Z,4.10
2023-05-14T20:52:30.368Z,3.90
2023-05-14T20:55:08.306Z,3.40
2023-05-14T20:57:37.345Z,2.80
2023-05-14T21:00:10.999Z,3.50
2023-05-14T21:03:43.961Z,4.30
2023-05-14T21:06:28.047Z,4.00
2023-05-14T21:12:34.477Z,4.00
2023-05-14T21:15:48.912Z,4.10
2023-05-14T21:18:57.223Z,4.00
2023-05-14T21:21:27.032Z,4.00
2023-05-14T21:24:05.621Z,4.50
2023-05-14T21:26:44.244Z,3.90
2023-05-14T21:29:30.937Z,4.50
2023-05-14T21:32:00.147Z,3.50
2023-05-14T21:34:32.948Z,3.90
2023-05-14T21:37:25.009Z,3.40
2023-05-14T21:40:31.975Z,3.50
2023-05-14T21:43:46.530Z,3.60
2023-05-14T21:46:38.299Z,3.90
2023-05-14T21:49:26.059Z,3.80
2023-05-14T21:52:01.351Z,3.40
2023-05-14T21:54:36.678Z,4.10
2023-05-14T21:57:06.136Z,3.30
2023-05-14T21:59:40.637Z,3.60
2023-05-14T22:02:22.038Z,4.10
2023-05-14T22:04:57.768Z,3.60
2023-05-14T22:07:46.342Z,3.40
2023-05-14T22:10:38.349Z,3.70
2023-05-14T22:13:07.634Z,3.70
2023-05-14T22:16:28.464Z,4.20
2023-05-14T22:19:31.004Z,3.50
2023-05-14T22:22:23.363Z,3.70
2023-05-14T22:25:18.748Z,4.00
2023-05-14T22:28:19.127Z,3.60
2023-05-14T22:31:32.116Z,4.00
2023-05-14T22:34:46.596Z,3.70
2023-05-14T22:37:42.711Z,3.80
2023-05-14T22:40:54.654Z,3.60
2023-05-14T22:44:18.355Z,3.40
2023-05-14T22:47:33.447Z,3.80
2023-05-14T22:50:59.829Z,3.50
2023-05-14T22:54:11.112Z,3.50
2023-05-14T22:57:10.224Z,3.80
2023-05-14T22:59:48.513Z,3.70
2023-05-14T23:02:26.867Z,3.80
2023-05-14T23:04:56.392Z,4.10
2023-05-14T23:08:45.611Z,3.60
2023-05-14T23:11:50.252Z,3.70
2023-05-14T23:15:08.121Z,3.60
2023-05-14T23:18:35.872Z,3.10
2023-05-14T23:21:47.841Z,3.60
2023-05-14T23:25:18.512Z,3.30
2023-05-14T23:28:37.147Z,3.10
2023-05-14T23:32:02.967Z,3.60
2023-05-14T23:34:46.907Z,3.70
2023-05-14T23:37:47.981Z,3.20
2023-05-14T23:41:12.210Z,3.40
2023-05-14T23:44:29.004Z,3.00
2023-05-14T23:47:47.961Z,3.10
2023-05-14T23:51:20.009Z,2.90
2023-05-14T23:54:42.678Z,2.60
2023-05-14T23:58:09.254Z,3.60
